createdAt,value
2023-01-07T00:01:32.629Z,1.10
2023-01-07T00:04:01.031Z,1.10
2023-01-07T00:06:33.286Z,1.00
2023-01-07T00:09:00.673Z,0.83
2023-01-07T00:11:28.879Z,0.80
2023-01-07T00:13:56.587Z,0.80
2023-01-07T00:16:26.215Z,0.80
2023-01-07T00:18:54.025Z,0.80
2023-01-07T00:21:22.185Z,0.73
2023-01-07T00:23:49.491Z,0.70
2023-01-07T00:26:20.539Z,0.80
2023-01-07T00:28:48.852Z,0.70
2023-01-07T00:31:20.260Z,0.63
2023-01-07T00:33:52.090Z,0.70
2023-01-07T00:36:20.051Z,1.00
2023-01-07T00:38:47.257Z,0.90
2023-01-07T00:41:14.539Z,2.60
2023-01-07T00:43:41.660Z,2.00
2023-01-07T00:46:09.547Z,1.27
2023-01-07T00:48:36.671Z,1.53
2023-01-07T00:51:03.835Z,0.97
2023-01-07T00:53:30.963Z,1.00
2023-01-07T00:55:58.174Z,1.30
2023-01-07T00:58:26.223Z,0.87
2023-01-07T01:00:57.706Z,0.90
2023-01-07T01:03:25.035Z,0.90
2023-01-07T01:05:52.252Z,1.00
2023-01-07T01:08:20.266Z,0.83
2023-01-07T01:10:47.725Z,1.10
2023-01-07T01:13:18.095Z,0.90
2023-01-07T01:15:46.139Z,0.90
2023-01-07T01:18:14.425Z,0.80
2023-01-07T01:20:41.767Z,0.90
2023-01-07T01:23:09.544Z,1.10
2023-01-07T01:25:36.705Z,1.00
2023-01-07T01:28:03.833Z,1.20
2023-01-07T01:30:30.931Z,1.23
2023-01-07T01:32:58.090Z,1.30
2023-01-07T01:35:26.316Z,1.60
2023-01-07T01:37:53.522Z,1.77
2023-01-07T01:40:20.690Z,1.67
2023-01-07T01:42:47.896Z,1.50
2023-01-07T01:45:15.090Z,1.50
2023-01-07T01:47:50.920Z,1.33
2023-01-07T01:50:18.005Z,1.60
2023-01-07T01:52:54.037Z,1.57
2023-01-07T01:55:25.134Z,1.40
2023-01-07T01:57:53.966Z,1.40
2023-01-07T02:00:21.102Z,1.60
2023-01-07T02:02:50.538Z,1.40
2023-01-07T02:05:18.015Z,1.87
2023-01-07T02:07:45.148Z,1.73
2023-01-07T02:10:20.503Z,1.97
2023-01-07T02:12:54.889Z,1.30
2023-01-07T02:15:27.753Z,1.20
2023-01-07T02:18:01.016Z,1.40
2023-01-07T02:20:28.174Z,1.23
2023-01-07T02:23:01.458Z,1.20
2023-01-07T02:25:47.133Z,1.40
2023-01-07T02:28:14.265Z,1.40
2023-01-07T02:30:51.811Z,1.37
2023-01-07T02:33:22.673Z,1.23
2023-01-07T02:35:49.749Z,2.00
2023-01-07T02:38:19.991Z,1.20
2023-01-07T02:41:05.142Z,1.40
2023-01-07T02:43:40.955Z,1.30
2023-01-07T02:46:11.305Z,1.20
2023-01-07T02:48:39.485Z,1.57
2023-01-07T02:51:06.644Z,1.40
2023-01-07T02:53:34.135Z,1.30
2023-01-07T02:56:07.355Z,1.40
2023-01-07T02:58:37.513Z,1.90
2023-01-07T03:01:23.542Z,1.40
2023-01-07T03:03:56.642Z,1.27
2023-01-07T03:06:26.826Z,1.33
2023-01-07T03:08:58.741Z,1.50
2023-01-07T03:11:27.948Z,1.40
2023-01-07T03:14:02.985Z,1.30
2023-01-07T03:16:33.304Z,1.37
2023-01-07T03:19:01.576Z,1.33
2023-01-07T03:21:30.314Z,1.30
2023-01-07T03:23:58.033Z,1.60
2023-01-07T03:26:28.153Z,1.40
2023-01-07T03:28:56.194Z,1.30
2023-01-07T03:31:23.521Z,1.20
2023-01-07T03:33:56.623Z,1.30
2023-01-07T03:36:26.218Z,1.33
2023-01-07T03:38:53.783Z,1.50
2023-01-07T03:41:39.832Z,1.40
2023-01-07T03:44:07.012Z,1.30
2023-01-07T03:46:34.897Z,1.10
2023-01-07T03:49:01.999Z,1.33
2023-01-07T03:51:29.140Z,1.27
2023-01-07T03:53:56.256Z,1.10
2023-01-07T03:56:23.380Z,1.30
2023-01-07T03:58:50.472Z,1.30
2023-01-07T04:01:17.671Z,1.30
2023-01-07T04:03:44.841Z,1.20
2023-01-07T04:06:12.006Z,1.40
2023-01-07T04:08:39.171Z,1.30
2023-01-07T04:11:06.393Z,1.50
2023-01-07T04:13:33.525Z,1.30
2023-01-07T04:16:00.672Z,1.30
2023-01-07T04:18:27.808Z,1.43
2023-01-07T04:20:55.008Z,1.40
2023-01-07T04:23:22.126Z,1.50
2023-01-07T04:25:49.629Z,1.60
2023-01-07T04:28:19.798Z,1.10
2023-01-07T04:30:46.932Z,1.30
2023-01-07T04:33:14.160Z,1.30
2023-01-07T04:35:41.519Z,1.27
2023-01-07T04:38:08.658Z,1.20
2023-01-07T04:40:35.764Z,1.20
2023-01-07T04:43:02.859Z,1.30
2023-01-07T04:45:29.942Z,1.37
2023-01-07T04:47:57.539Z,1.30
2023-01-07T04:50:25.257Z,1.47
2023-01-07T04:52:52.400Z,1.70
2023-01-07T04:55:19.581Z,1.70
2023-01-07T04:57:46.684Z,2.00
2023-01-07T05:00:14.017Z,1.73
2023-01-07T05:02:41.186Z,1.50
2023-01-07T05:05:08.496Z,1.50
2023-01-07T05:07:35.609Z,1.80
2023-01-07T05:10:02.762Z,1.70
2023-01-07T05:12:29.829Z,1.70
2023-01-07T05:14:56.951Z,1.80
2023-01-07T05:17:24.061Z,1.50
2023-01-07T05:19:51.175Z,1.40
2023-01-07T05:22:18.269Z,1.70
2023-01-07T05:24:45.455Z,1.57
2023-01-07T05:27:12.672Z,1.60
2023-01-07T05:29:39.896Z,1.50
2023-01-07T05:32:07.072Z,1.77
2023-01-07T05:34:34.232Z,1.67
2023-01-07T05:37:01.326Z,2.33
2023-01-07T05:39:28.431Z,2.17
2023-01-07T05:41:55.619Z,1.93
2023-01-07T05:44:22.749Z,1.77
2023-01-07T05:46:49.887Z,2.00
2023-01-07T05:49:17.057Z,2.03
2023-01-07T05:51:44.258Z,1.77
2023-01-07T05:54:11.445Z,2.17
2023-01-07T05:56:38.580Z,1.80
2023-01-07T05:59:05.681Z,2.10
2023-01-07T06:01:32.901Z,2.60
2023-01-07T06:04:00.045Z,2.30
2023-01-07T06:06:27.213Z,2.40
2023-01-07T06:08:54.357Z,2.10
2023-01-07T06:11:21.482Z,2.20
2023-01-07T06:13:48.650Z,2.10
2023-01-07T06:16:16.682Z,2.23
2023-01-07T06:18:43.801Z,2.20
2023-01-07T06:21:11.034Z,2.73
2023-01-07T06:23:38.219Z,2.03
2023-01-07T06:26:05.529Z,2.43
2023-01-07T06:28:32.707Z,2.27
2023-01-07T06:30:59.869Z,2.57
2023-01-07T06:33:27.059Z,2.50
2023-01-07T06:35:54.173Z,2.23
2023-01-07T06:38:21.301Z,2.80
2023-01-07T06:40:48.382Z,2.47
2023-01-07T06:43:15.489Z,3.00
2023-01-07T06:45:42.872Z,2.90
2023-01-07T06:48:10.022Z,2.80
2023-01-07T06:50:37.217Z,2.60
2023-01-07T06:53:04.829Z,2.50
2023-01-07T06:55:31.949Z,2.60
2023-01-07T06:57:59.094Z,2.70
2023-01-07T07:00:26.170Z,3.00
2023-01-07T07:02:53.439Z,3.37
2023-01-07T07:05:20.585Z,2.80
2023-01-07T07:07:47.752Z,2.50
2023-01-07T07:10:14.998Z,2.60
2023-01-07T07:12:42.130Z,2.93
2023-01-07T07:15:09.688Z,1.63
2023-01-07T07:17:36.849Z,1.07
2023-01-07T07:20:04.440Z,0.87
2023-01-07T07:22:31.538Z,0.80
2023-01-07T07:24:58.665Z,0.90
2023-01-07T07:27:25.783Z,1.00
2023-01-07T07:29:52.943Z,1.00
2023-01-07T07:32:20.136Z,0.90
2023-01-07T07:34:47.272Z,0.80
2023-01-07T07:37:14.417Z,0.90
2023-01-07T07:39:41.533Z,0.90
2023-01-07T07:42:08.940Z,0.70
2023-01-07T07:44:36.073Z,1.00
2023-01-07T07:47:03.247Z,0.90
2023-01-07T07:49:30.705Z,1.80
2023-01-07T07:51:57.828Z,1.13
2023-01-07T07:54:25.015Z,0.77
2023-01-07T07:56:52.138Z,0.67
2023-01-07T07:59:19.224Z,0.90
2023-01-07T08:01:46.482Z,0.80
2023-01-07T08:04:13.632Z,0.80
2023-01-07T08:06:40.749Z,0.80
2023-01-07T08:09:07.834Z,0.90
2023-01-07T08:11:35.077Z,0.90
2023-01-07T08:14:02.447Z,1.20
2023-01-07T08:16:29.645Z,1.50
2023-01-07T08:18:56.792Z,1.03
2023-01-07T08:21:23.923Z,1.07
2023-01-07T08:23:51.019Z,0.80
2023-01-07T08:26:18.146Z,1.40
2023-01-07T08:28:46.643Z,1.00
2023-01-07T08:31:14.085Z,1.40
2023-01-07T08:33:41.233Z,1.10
2023-01-07T08:36:18.118Z,1.10
2023-01-07T08:38:50.850Z,1.20
2023-01-07T08:41:17.998Z,1.40
2023-01-07T08:43:45.204Z,3.50
2023-01-07T08:46:12.321Z,3.97
2023-01-07T08:48:40.256Z,4.27
2023-01-07T08:51:07.797Z,3.93
2023-01-07T08:53:34.979Z,3.90
2023-01-07T08:56:02.241Z,3.43
2023-01-07T08:58:29.390Z,3.60
2023-01-07T09:01:00.855Z,4.17
2023-01-07T09:03:28.036Z,4.07
2023-01-07T09:05:55.163Z,2.40
2023-01-07T09:08:22.275Z,2.33
2023-01-07T09:10:49.453Z,2.13
2023-01-07T09:13:16.608Z,5.73
2023-01-07T09:15:43.856Z,3.40
2023-01-07T09:18:11.223Z,4.10
2023-01-07T09:20:38.337Z,3.87
2023-01-07T09:23:05.576Z,9.60
2023-01-07T09:25:32.716Z,18.90
2023-01-07T09:27:59.845Z,15.17
2023-01-07T09:30:27.054Z,15.53
2023-01-07T09:32:54.199Z,16.63
2023-01-07T09:35:21.350Z,10.33
2023-01-07T09:37:48.466Z,10.93
2023-01-07T09:40:21.520Z,4.70
2023-01-07T09:42:58.724Z,4.67
2023-01-07T09:45:27.441Z,5.60
2023-01-07T09:47:58.813Z,8.53
2023-01-07T09:50:29.006Z,5.47
2023-01-07T09:52:58.543Z,3.43
2023-01-07T09:55:29.395Z,2.77
2023-01-07T09:57:56.562Z,3.40
2023-01-07T10:00:24.928Z,3.50
2023-01-07T10:03:14.997Z,2.50
2023-01-07T10:05:45.191Z,2.33
2023-01-07T10:08:29.447Z,2.73
2023-01-07T10:10:59.026Z,3.10
2023-01-07T10:13:47.399Z,5.50
2023-01-07T10:16:32.612Z,6.17
2023-01-07T10:19:05.474Z,4.43
2023-01-07T10:21:38.484Z,3.40
2023-01-07T10:24:12.574Z,2.37
2023-01-07T10:26:45.015Z,2.53
2023-01-07T10:29:15.047Z,2.90
2023-01-07T10:31:42.526Z,2.57
2023-01-07T10:34:22.665Z,2.50
2023-01-07T10:36:58.237Z,2.40
2023-01-07T10:39:30.594Z,2.93
2023-01-07T10:41:57.674Z,3.00
2023-01-07T10:44:37.072Z,2.77
2023-01-07T10:47:23.125Z,3.20
2023-01-07T10:49:58.344Z,3.70
2023-01-07T10:52:38.493Z,3.13
2023-01-07T10:55:14.809Z,3.20
2023-01-07T10:57:42.170Z,3.10
2023-01-07T11:00:13.621Z,3.33
2023-01-07T11:02:44.046Z,3.47
2023-01-07T11:05:14.186Z,3.20
2023-01-07T11:07:46.554Z,3.13
2023-01-07T11:10:16.460Z,2.90
2023-01-07T11:13:01.542Z,2.93
2023-01-07T11:15:30.051Z,2.70
2023-01-07T11:18:00.482Z,2.40
2023-01-07T11:20:46.120Z,2.43
2023-01-07T11:23:22.366Z,2.30
2023-01-07T11:25:49.958Z,2.30
2023-01-07T11:28:21.102Z,2.40
2023-01-07T11:30:57.062Z,1.90
2023-01-07T11:34:01.834Z,2.10
2023-01-07T11:36:13.704Z,2.20
2023-01-07T11:38:40.855Z,2.33
2023-01-07T11:41:18.467Z,2.40
2023-01-07T11:43:48.871Z,1.60
2023-01-07T11:46:21.460Z,1.70
2023-01-07T11:49:00.695Z,2.30
2023-01-07T11:51:28.191Z,1.50
2023-01-07T11:53:55.347Z,1.57
2023-01-07T11:56:22.475Z,1.40
2023-01-07T11:58:50.747Z,1.60
2023-01-07T12:01:17.993Z,1.50
2023-01-07T12:03:48.178Z,1.70
2023-01-07T12:06:26.924Z,1.40
2023-01-07T12:09:09.318Z,1.40
2023-01-07T12:11:39.878Z,1.80
2023-01-07T12:14:08.306Z,1.70
2023-01-07T12:16:36.374Z,1.60
2023-01-07T12:19:31.607Z,1.60
2023-01-07T12:22:07.789Z,1.60
2023-01-07T12:24:34.998Z,1.47
2023-01-07T12:27:11.298Z,1.40
2023-01-07T12:29:41.593Z,1.43
2023-01-07T12:32:23.930Z,1.60
2023-01-07T12:35:14.625Z,1.60
2023-01-07T12:37:42.617Z,1.40
2023-01-07T12:40:18.630Z,1.30
2023-01-07T12:42:52.488Z,1.70
2023-01-07T12:45:26.557Z,1.50
2023-01-07T12:47:56.345Z,1.80
2023-01-07T12:50:37.231Z,1.70
2023-01-07T12:53:20.062Z,2.20
2023-01-07T12:55:57.158Z,1.50
2023-01-07T12:58:44.811Z,1.60
2023-01-07T13:01:36.367Z,1.70
2023-01-07T13:04:06.391Z,1.60
2023-01-07T13:06:45.983Z,1.43
2023-01-07T13:09:17.020Z,1.77
2023-01-07T13:12:04.812Z,1.60
2023-01-07T13:14:41.880Z,1.70
2023-01-07T13:17:16.587Z,1.47
2023-01-07T13:19:43.853Z,1.40
2023-01-07T13:22:31.245Z,1.57
2023-01-07T13:25:18.952Z,1.50
2023-01-07T13:27:58.384Z,1.43
2023-01-07T13:30:34.588Z,2.50
2023-01-07T13:33:01.647Z,1.50
2023-01-07T13:35:42.185Z,1.43
2023-01-07T13:38:09.255Z,1.50
2023-01-07T13:40:55.154Z,1.30
2023-01-07T13:43:22.233Z,1.30
2023-01-07T13:46:07.704Z,1.23
2023-01-07T13:48:38.361Z,1.30
2023-01-07T13:51:06.608Z,1.30
2023-01-07T13:53:47.137Z,1.40
2023-01-07T13:56:17.337Z,1.73
2023-01-07T13:58:48.800Z,1.50
2023-01-07T14:01:19.946Z,1.83
2023-01-07T14:03:47.581Z,1.60
2023-01-07T14:06:20.692Z,1.50
2023-01-07T14:08:56.953Z,1.50
2023-01-07T14:11:33.017Z,1.73
2023-01-07T14:14:02.884Z,1.73
2023-01-07T14:16:29.937Z,1.80
2023-01-07T14:19:06.988Z,1.63
2023-01-07T14:21:42.633Z,2.00
2023-01-07T14:24:18.974Z,3.20
2023-01-07T14:27:04.565Z,1.70
2023-01-07T14:29:39.352Z,1.77
2023-01-07T14:32:41.717Z,6.77
2023-01-07T14:35:22.677Z,2.63
2023-01-07T14:37:49.870Z,2.20
2023-01-07T14:40:29.248Z,2.17
2023-01-07T14:42:57.314Z,2.33
2023-01-07T14:45:39.812Z,2.00
2023-01-07T14:48:09.996Z,1.60
2023-01-07T14:50:43.272Z,1.70
2023-01-07T14:53:30.323Z,1.57
2023-01-07T14:56:11.732Z,1.83
2023-01-07T14:58:57.937Z,1.63
2023-01-07T15:01:43.909Z,1.60
2023-01-07T15:04:28.712Z,1.70
2023-01-07T15:06:57.448Z,1.53
2023-01-07T15:09:51.731Z,1.60
2023-01-07T15:12:41.322Z,2.23
2023-01-07T15:15:29.716Z,2.00
2023-01-07T15:17:57.025Z,3.53
2023-01-07T15:20:26.356Z,2.50
2023-01-07T15:23:06.314Z,2.20
2023-01-07T15:25:41.162Z,1.97
2023-01-07T15:28:17.861Z,1.97
2023-01-07T15:30:48.030Z,2.00
2023-01-07T15:33:30.244Z,2.30
2023-01-07T15:35:58.302Z,3.37
2023-01-07T15:38:31.153Z,2.97
2023-01-07T15:40:59.374Z,1.87
2023-01-07T15:43:27.500Z,3.10
2023-01-07T15:46:05.407Z,9.57
2023-01-07T15:48:32.552Z,7.87
2023-01-07T15:51:02.652Z,3.90
2023-01-07T15:53:30.411Z,2.70
2023-01-07T15:56:03.191Z,2.10
2023-01-07T15:58:40.574Z,2.40
2023-01-07T16:01:09.266Z,2.70
2023-01-07T16:03:38.479Z,3.17
2023-01-07T16:06:05.864Z,2.60
2023-01-07T16:08:34.169Z,2.53
2023-01-07T16:11:23.315Z,2.30
2023-01-07T16:14:00.773Z,2.27
2023-01-07T16:16:29.318Z,2.50
2023-01-07T16:18:57.493Z,2.87
2023-01-07T16:21:26.380Z,2.43
2023-01-07T16:23:54.558Z,3.33
2023-01-07T16:26:24.826Z,2.80
2023-01-07T16:29:05.963Z,3.23
2023-01-07T16:31:35.066Z,4.17
2023-01-07T16:34:03.222Z,3.20
2023-01-07T16:36:37.646Z,2.77
2023-01-07T16:39:06.943Z,2.80
2023-01-07T16:41:34.963Z,2.80
2023-01-07T16:44:03.058Z,2.77
2023-01-07T16:46:36.105Z,2.90
2023-01-07T16:49:12.246Z,3.47
2023-01-07T16:51:43.915Z,3.07
2023-01-07T16:54:26.075Z,3.30
2023-01-07T16:56:55.195Z,4.00
2023-01-07T16:59:23.402Z,4.67
2023-01-07T17:01:50.818Z,4.60
2023-01-07T17:04:24.217Z,4.70
2023-01-07T17:06:51.672Z,4.80
2023-01-07T17:09:23.875Z,5.10
2023-01-07T17:11:52.160Z,5.43
2023-01-07T17:14:38.033Z,5.57
2023-01-07T17:17:25.696Z,5.03
2023-01-07T17:19:57.981Z,5.47
2023-01-07T17:22:28.222Z,5.57
2023-01-07T17:25:00.354Z,6.57
2023-01-07T17:27:29.539Z,6.43
2023-01-07T17:29:56.956Z,7.03
2023-01-07T17:32:27.211Z,7.80
2023-01-07T17:34:54.335Z,6.90
2023-01-07T17:37:21.829Z,7.23
2023-01-07T17:39:51.310Z,7.10
2023-01-07T17:42:40.134Z,7.43
2023-01-07T17:45:07.635Z,8.40
2023-01-07T17:47:34.803Z,8.50
2023-01-07T17:50:01.958Z,8.83
2023-01-07T17:52:29.631Z,8.90
2023-01-07T17:54:56.758Z,8.83
2023-01-07T17:57:23.834Z,10.80
2023-01-07T17:59:51.838Z,10.03
2023-01-07T18:02:19.957Z,9.80
2023-01-07T18:04:47.212Z,9.90
2023-01-07T18:07:15.617Z,10.27
2023-01-07T18:09:43.029Z,10.60
2023-01-07T18:12:30.017Z,11.40
2023-01-07T18:14:58.319Z,10.70
2023-01-07T18:17:25.622Z,11.50
2023-01-07T18:19:52.829Z,11.27
2023-01-07T18:22:20.918Z,12.80
2023-01-07T18:24:51.041Z,12.13
2023-01-07T18:27:18.722Z,12.47
2023-01-07T18:29:45.898Z,13.53
2023-01-07T18:32:13.006Z,13.70
2023-01-07T18:34:40.180Z,13.30
2023-01-07T18:37:07.292Z,12.53
2023-01-07T18:39:34.646Z,12.80
2023-01-07T18:42:01.790Z,12.20
2023-01-07T18:44:28.969Z,12.13
2023-01-07T18:46:56.101Z,11.70
2023-01-07T18:49:23.274Z,11.37
2023-01-07T18:51:50.387Z,11.33
2023-01-07T18:54:17.579Z,12.43
2023-01-07T18:56:45.846Z,13.57
2023-01-07T18:59:13.565Z,13.57
2023-01-07T19:01:40.850Z,13.40
2023-01-07T19:04:08.175Z,13.50
2023-01-07T19:06:35.364Z,14.27
2023-01-07T19:09:02.551Z,13.73
2023-01-07T19:11:29.783Z,14.13
2023-01-07T19:13:56.926Z,15.27
2023-01-07T19:16:24.056Z,15.57
2023-01-07T19:18:53.054Z,14.87
2023-01-07T19:21:21.382Z,15.07
2023-01-07T19:23:48.902Z,15.17
2023-01-07T19:26:16.102Z,15.80
2023-01-07T19:28:43.186Z,15.60
2023-01-07T19:31:11.529Z,14.83
2023-01-07T19:33:39.538Z,15.17
2023-01-07T19:36:09.278Z,14.97
2023-01-07T19:38:40.079Z,14.83
2023-01-07T19:41:08.233Z,15.10
2023-01-07T19:43:35.423Z,16.23
2023-01-07T19:46:02.645Z,15.77
2023-01-07T19:48:29.802Z,16.33
2023-01-07T19:50:58.052Z,16.97
2023-01-07T19:53:25.608Z,18.67
2023-01-07T19:55:54.355Z,21.00
2023-01-07T19:58:22.071Z,21.80
2023-01-07T20:00:49.271Z,23.53
2023-01-07T20:03:16.423Z,20.27
2023-01-07T20:05:43.609Z,19.67
2023-01-07T20:08:10.712Z,21.13
2023-01-07T20:10:37.801Z,17.43
2023-01-07T20:13:06.406Z,18.07
2023-01-07T20:15:33.545Z,18.03
2023-01-07T20:18:00.650Z,17.30
2023-01-07T20:20:27.759Z,17.03
2023-01-07T20:22:54.927Z,18.13
2023-01-07T20:25:22.024Z,17.47
2023-01-07T20:27:49.114Z,19.13
2023-01-07T20:30:16.219Z,18.93
2023-01-07T20:32:43.379Z,18.37
2023-01-07T20:35:10.664Z,17.47
2023-01-07T20:37:37.804Z,17.73
2023-01-07T20:40:05.162Z,17.80
2023-01-07T20:42:32.321Z,18.93
2023-01-07T20:45:00.301Z,18.00
2023-01-07T20:47:27.540Z,17.23
2023-01-07T20:49:54.647Z,17.40
2023-01-07T20:52:21.852Z,17.40
2023-01-07T20:54:49.004Z,17.57
2023-01-07T20:57:16.100Z,17.10
2023-01-07T20:59:43.246Z,17.50
2023-01-07T21:02:15.667Z,16.93
2023-01-07T21:04:43.068Z,16.43
2023-01-07T21:07:10.543Z,17.43
2023-01-07T21:09:37.736Z,16.47
2023-01-07T21:12:04.875Z,15.97
2023-01-07T21:14:32.286Z,16.63
2023-01-07T21:16:59.407Z,16.93
2023-01-07T21:19:26.537Z,17.93
2023-01-07T21:21:53.671Z,16.63
2023-01-07T21:24:20.804Z,17.40
2023-01-07T21:26:48.456Z,17.60
2023-01-07T21:29:16.152Z,16.97
2023-01-07T21:31:45.206Z,18.10
2023-01-07T21:34:12.455Z,18.10
2023-01-07T21:36:40.580Z,17.30
2023-01-07T21:39:08.581Z,19.00
2023-01-07T21:41:35.738Z,18.40
2023-01-07T21:44:02.894Z,18.17
2023-01-07T21:46:29.999Z,18.60
2023-01-07T21:48:57.124Z,18.37
2023-01-07T21:51:25.656Z,18.40
2023-01-07T21:53:55.826Z,17.67
2023-01-07T21:56:23.392Z,17.97
2023-01-07T21:58:50.469Z,17.87
2023-01-07T22:01:18.446Z,17.17
2023-01-07T22:03:46.976Z,17.53
2023-01-07T22:06:17.649Z,18.20
2023-01-07T22:08:44.751Z,17.47
2023-01-07T22:11:18.330Z,17.40
2023-01-07T22:13:45.633Z,18.07
2023-01-07T22:16:12.832Z,18.63
2023-01-07T22:18:40.999Z,17.60
2023-01-07T22:21:08.164Z,17.67
2023-01-07T22:23:37.242Z,17.80
2023-01-07T22:26:05.215Z,17.90
2023-01-07T22:28:33.047Z,17.43
2023-01-07T22:31:02.930Z,17.67
2023-01-07T22:33:30.078Z,17.90
2023-01-07T22:35:57.348Z,17.33
2023-01-07T22:38:26.997Z,16.73
2023-01-07T22:40:55.602Z,16.10
2023-01-07T22:43:24.136Z,16.83
2023-01-07T22:45:53.709Z,16.23
2023-01-07T22:48:24.027Z,16.17
2023-01-07T22:50:55.407Z,16.20
2023-01-07T22:53:22.714Z,16.17
2023-01-07T22:55:49.856Z,16.47
2023-01-07T22:58:18.360Z,16.53
2023-01-07T23:00:51.586Z,16.13
2023-01-07T23:03:19.286Z,15.90
2023-01-07T23:05:46.437Z,16.17
2023-01-07T23:08:13.578Z,16.03
2023-01-07T23:10:42.471Z,15.20
2023-01-07T23:13:09.751Z,16.83
2023-01-07T23:15:38.168Z,16.40
2023-01-07T23:18:06.009Z,15.77
2023-01-07T23:20:33.596Z,16.33
2023-01-07T23:23:00.818Z,15.37
2023-01-07T23:25:28.209Z,14.47
2023-01-07T23:27:55.389Z,15.83
2023-01-07T23:30:22.715Z,15.17
2023-01-07T23:32:49.859Z,15.17
2023-01-07T23:35:17.049Z,15.17
2023-01-07T23:37:44.194Z,15.37
2023-01-07T23:40:11.630Z,15.00
2023-01-07T23:42:39.280Z,15.03
2023-01-07T23:45:07.263Z,15.60
2023-01-07T23:47:34.702Z,14.93
2023-01-07T23:50:01.834Z,15.33
2023-01-07T23:52:28.966Z,16.33
2023-01-07T23:54:56.083Z,16.67
2023-01-07T23:57:23.224Z,16.50
2023-01-07T23:59:50.334Z,16.23
